地図

経路データ

SID SEASON NUMBER BASIN SUBBASIN NAME ISO_TIME NATURE LAT LON WMO_WIND WMO_PRES WMO_AGENCY TRACK_TYPE DIST2LAND LANDFALL IFLAG USA_AGENCY USA_ATCF_ID USA_LAT USA_LON USA_RECORD USA_STATUS USA_WIND USA_PRES USA_SSHS USA_R34_NE USA_R34_SE USA_R34_SW USA_R34_NW USA_R50_NE USA_R50_SE USA_R50_SW USA_R50_NW USA_R64_NE USA_R64_SE USA_R64_SW USA_R64_NW USA_POCI USA_ROCI USA_RMW USA_EYE TOKYO_LAT TOKYO_LON TOKYO_GRADE TOKYO_WIND TOKYO_PRES TOKYO_R50_DIR TOKYO_R50_LONG TOKYO_R50_SHORT TOKYO_R30_DIR TOKYO_R30_LONG TOKYO_R30_SHORT TOKYO_LAND CMA_LAT CMA_LON CMA_CAT CMA_WIND CMA_PRES HKO_LAT HKO_LON HKO_CAT HKO_WIND HKO_PRES NEWDELHI_LAT NEWDELHI_LON NEWDELHI_GRADE NEWDELHI_WIND NEWDELHI_PRES NEWDELHI_CI NEWDELHI_DP NEWDELHI_POCI REUNION_LAT REUNION_LON REUNION_TYPE REUNION_WIND REUNION_PRES REUNION_TNUM REUNION_CI REUNION_RMW REUNION_R34_NE REUNION_R34_SE REUNION_R34_SW REUNION_R34_NW REUNION_R50_NE REUNION_R50_SE REUNION_R50_SW REUNION_R50_NW REUNION_R64_NE REUNION_R64_SE REUNION_R64_SW REUNION_R64_NW BOM_LAT BOM_LON BOM_TYPE BOM_WIND BOM_PRES BOM_TNUM BOM_CI BOM_RMW BOM_R34_NE BOM_R34_SE BOM_R34_SW BOM_R34_NW BOM_R50_NE BOM_R50_SE BOM_R50_SW BOM_R50_NW BOM_R64_NE BOM_R64_SE BOM_R64_SW BOM_R64_NW BOM_ROCI BOM_POCI BOM_EYE BOM_POS_METHOD BOM_PRES_METHOD NADI_LAT NADI_LON NADI_CAT NADI_WIND NADI_PRES WELLINGTON_LAT WELLINGTON_LON WELLINGTON_WIND WELLINGTON_PRES DS824_LAT DS824_LON DS824_STAGE DS824_WIND DS824_PRES TD9636_LAT TD9636_LON TD9636_STAGE TD9636_WIND TD9636_PRES TD9635_LAT TD9635_LON TD9635_WIND TD9635_PRES TD9635_ROCI NEUMANN_LAT NEUMANN_LON NEUMANN_CLASS NEUMANN_WIND NEUMANN_PRES MLC_LAT MLC_LON MLC_CLASS MLC_WIND MLC_PRES USA_GUST BOM_GUST BOM_GUST_PER REUNION_GUST REUNION_GUST_PER USA_SEAHGT USA_SEARAD_NE USA_SEARAD_SE USA_SEARAD_SW USA_SEARAD_NW STORM_SPEED STORM_DIR
1950227N20207 1950 62 EP CP NOT_NAMED 1950-08-14 12:00:00 NR 19.7000 206.800 main 169 133 __________O___ -1 19.7000 -153.200 4 8 300
1950227N20207 1950 62 EP CP NOT_NAMED 1950-08-14 15:00:00 NR 19.8990 206.429 main 133 115 __________P___ -1 19.8990 -153.571 4 8 300
1950227N20207 1950 62 EP CP NOT_NAMED 1950-08-14 18:00:00 NR 20.1082 206.055 main 115 94 __________P___ -1 20.1082 -153.945 4 8 302
1950227N20207 1950 62 EP CP NOT_NAMED 1950-08-14 21:00:00 NR 20.3382 205.680 main 94 83 __________P___ -1 20.3382 -154.320 4 9 305
1950227N20207 1950 62 EP CP NOT_NAMED 1950-08-15 00:00:00 NR 20.6000 205.300 main 84 79 __________O___ -1 20.6000 -154.700 4 9 308
1950227N20207 1950 62 EP CP NOT_NAMED 1950-08-15 03:00:00 NR 20.9000 204.915 main 94 68 __________P___ -1 20.9000 -155.085 4 10 311
1950227N20207 1950 62 EP CP NOT_NAMED 1950-08-15 06:00:00 NR 21.2270 204.522 main 68 68 __________P___ -1 21.2270 -155.478 4 10 312
1950227N20207 1950 62 EP CP NOT_NAMED 1950-08-15 09:00:00 NR 21.5656 204.118 main 90 89 __________P___ -1 21.5656 -155.882 4 10 311
1950227N20207 1950 62 EP CP NOT_NAMED 1950-08-15 12:00:00 NR 21.9000 203.700 main 113 113 __________O___ -1 21.9000 -156.300 4 10 310
1950227N20207 1950 62 EP CP NOT_NAMED 1950-08-15 15:00:00 NR 22.2315 203.256 main 136 123 __________P___ -1 22.2315 -156.744 4 11 308
1950227N20207 1950 62 EP CP NOT_NAMED 1950-08-15 18:00:00 NR 22.5525 202.800 main 133 127 __________P___ -1 22.5525 -157.200 4 10 306
1950227N20207 1950 62 EP CP NOT_NAMED 1950-08-15 21:00:00 NR 22.8471 202.344 main 135 135 __________P___ -1 22.8471 -157.656 4 10 303
1950227N20207 1950 62 EP CP NOT_NAMED 1950-08-16 00:00:00 NR 23.1000 201.900 main 166 153 __________O___ -1 23.1000 -158.100 4 10 301
1950227N20207 1950 62 EP CP NOT_NAMED 1950-08-16 03:00:00 NR 23.3338 201.449 main 152 152 __________P___ -1 23.3338 -158.551 4 9 297
1950227N20207 1950 62 EP CP NOT_NAMED 1950-08-16 06:00:00 NR 23.5201 201.018 main 159 157 __________P___ -1 23.5201 -158.982 4 8 293
1950227N20207 1950 62 EP CP NOT_NAMED 1950-08-16 09:00:00 NR 23.6464 200.627 main 167 167 __________P___ -1 23.6464 -159.373 4 7 285
1950227N20207 1950 62 EP CP NOT_NAMED 1950-08-16 12:00:00 NR 23.7000 200.300 main 178 178 __________O___ -1 23.7000 -159.700 4 5 274
1950227N20207 1950 62 EP CP NOT_NAMED 1950-08-16 15:00:00 NR 23.6794 200.047 main 181 170 __________P___ -1 23.6794 -159.953 4 4 255
1950227N20207 1950 62 EP CP NOT_NAMED 1950-08-16 18:00:00 NR 23.5894 199.859 main 172 164 __________P___ -1 23.5894 -160.141 4 4 233
1950227N20207 1950 62 EP CP NOT_NAMED 1950-08-16 21:00:00 NR 23.4546 199.716 main 168 152 __________P___ -1 23.4546 -160.284 4 4 219
1950227N20207 1950 62 EP CP NOT_NAMED 1950-08-17 00:00:00 NR 23.3000 199.600 main 152 142 __________O___ -1 23.3000 -160.400 4 4 216
1950227N20207 1950 62 EP CP NOT_NAMED 1950-08-17 03:00:00 NR 23.1642 199.487 main 147 136 __________P___ -1 23.1642 -160.513 4 3 214
1950227N20207 1950 62 EP CP NOT_NAMED 1950-08-17 06:00:00 NR 23.0148 199.393 main 136 128 __________P___ -1 23.0148 -160.607 4 4 209
1950227N20207 1950 62 EP CP NOT_NAMED 1950-08-17 09:00:00 NR 22.8580 199.302 main 136 128 __________P___ -1 22.8580 -160.698 4 4 209
1950227N20207 1950 62 EP CP NOT_NAMED 1950-08-17 12:00:00 NR 22.7000 199.200 main 129 122 __________O___ -1 22.7000 -160.800 4 4 211
1950227N20207 1950 62 EP CP NOT_NAMED 1950-08-17 15:00:00 NR 22.5295 199.093 main 126 126 __________P___ -1 22.5295 -160.907 4 4 212
1950227N20207 1950 62 EP CP NOT_NAMED 1950-08-17 18:00:00 NR 22.3621 198.967 main 131 128 __________P___ -1 22.3621 -161.033 4 4 220
1950227N20207 1950 62 EP CP NOT_NAMED 1950-08-17 21:00:00 NR 22.2137 198.808 main 145 145 __________P___ -1 22.2137 -161.192 4 4 232
1950227N20207 1950 62 EP CP NOT_NAMED 1950-08-18 00:00:00 NR 22.1000 198.600 main 165 165 __________O___ -1 22.1000 -161.400 4 5 247
1950227N20207 1950 62 EP CP NOT_NAMED 1950-08-18 03:00:00 NR 22.0309 198.338 main 195 195 __________P___ -1 22.0309 -161.662 4 5 259
1950227N20207 1950 62 EP CP NOT_NAMED 1950-08-18 06:00:00 NR 21.9975 198.025 main 226 226 __________P___ -1 21.9975 -161.975 4 6 266
1950227N20207 1950 62 EP CP NOT_NAMED 1950-08-18 09:00:00 NR 21.9902 197.675 main 257 257 __________P___ -1 21.9902 -162.325 4 7 270
1950227N20207 1950 62 EP CP NOT_NAMED 1950-08-18 12:00:00 NR 22.0000 197.300 main 298 298 __________O___ -1 22.0000 -162.700 4 7 271
1950227N20207 1950 62 EP CP NOT_NAMED 1950-08-18 15:00:00 NR 22.0062 196.938 main 340 340 __________P___ -1 22.0062 -163.062 4 7 272
1950227N20207 1950 62 EP CP NOT_NAMED 1950-08-18 18:00:00 NR 22.0269 196.552 main 371 371 __________P___ -1 22.0269 -163.448 4 7 274
1950227N20207 1950 62 EP CP NOT_NAMED 1950-08-18 21:00:00 NR 22.0592 196.141 main 422 422 __________P___ -1 22.0592 -163.859 4 8 275
1950227N20207 1950 62 EP CP NOT_NAMED 1950-08-19 00:00:00 NR 22.1000 195.700 main 463 463 __________O___ -1 22.1000 -164.300 4 9 275
1950227N20207 1950 62 EP CP NOT_NAMED 1950-08-19 03:00:00 NR 22.1266 195.224 main 515 515 __________P___ -1 22.1266 -164.776 4 9 274
1950227N20207 1950 62 EP CP NOT_NAMED 1950-08-19 06:00:00 NR 22.1625 194.722 main 566 566 __________P___ -1 22.1625 -165.278 4 9 276
1950227N20207 1950 62 EP CP NOT_NAMED 1950-08-19 09:00:00 NR 22.2172 194.209 main 618 618 __________P___ -1 22.2172 -165.791 4 10 278
1950227N20207 1950 62 EP CP NOT_NAMED 1950-08-19 12:00:00 NR 22.3000 193.700 main 669 669 __________O___ -1 22.3000 -166.300 4 9 282
1950227N20207 1950 62 EP CP NOT_NAMED 1950-08-19 15:00:00 NR 22.4125 193.222 main 721 721 __________P___ -1 22.4125 -166.778 4 9 286
1950227N20207 1950 62 EP CP NOT_NAMED 1950-08-19 18:00:00 NR 22.5542 192.750 main 774 774 __________P___ -1 22.5542 -167.250 4 9 289
1950227N20207 1950 62 EP CP NOT_NAMED 1950-08-19 21:00:00 NR 22.7188 192.278 main 815 815 __________P___ -1 22.7188 -167.722 4 9 292
1950227N20207 1950 62 EP CP NOT_NAMED 1950-08-20 00:00:00 NR 22.9000 191.800 main 868 868 __________O___ -1 22.9000 -168.200 4 10 292
1950227N20207 1950 62 EP CP NOT_NAMED 1950-08-20 03:00:00 NR 23.0773 191.299 main 921 921 __________P___ -1 23.0773 -168.701 4 10 292
1950227N20207 1950 62 EP CP NOT_NAMED 1950-08-20 06:00:00 NR 23.2698 190.792 main 974 974 __________P___ -1 23.2698 -169.208 4 10 293
1950227N20207 1950 62 EP CP NOT_NAMED 1950-08-20 09:00:00 NR 23.4773 190.289 main 1028 1028 __________P___ -1 23.4773 -169.711 4 10 295
1950227N20207 1950 62 EP CP NOT_NAMED 1950-08-20 12:00:00 NR 23.7000 189.800 main 1081 1081 __________O___ -1 23.7000 -170.200 4 10 298
1950227N20207 1950 62 EP CP NOT_NAMED 1950-08-20 15:00:00 NR 23.9477 189.307 main 1135 1135 __________P___ -1 23.9477 -170.693 4 10 300
1950227N20207 1950 62 EP CP NOT_NAMED 1950-08-20 18:00:00 NR 24.2075 188.833 main 1190 1190 __________P___ -1 24.2075 -171.167 4 10 302
1950227N20207 1950 62 EP CP NOT_NAMED 1950-08-20 21:00:00 NR 24.4635 188.392 main 1236 1236 __________P___ -1 24.4635 -171.608 4 9 303
1950227N20207 1950 62 EP CP NOT_NAMED 1950-08-21 00:00:00 NR 24.7000 188.000 main 1280 1280 __________O___ -1 24.7000 -172.000 4 8 304
1950227N20207 1950 62 EP CP NOT_NAMED 1950-08-21 03:00:00 NR 24.8958 187.674 main 1314 1314 __________P___ -1 24.8958 -172.326 4 7 304
1950227N20207 1950 62 EP CP NOT_NAMED 1950-08-21 06:00:00 NR 25.0716 187.396 main 1348 1348 __________P___ -1 25.0716 -172.604 4 6 305
1950227N20207 1950 62 EP CP NOT_NAMED 1950-08-21 09:00:00 NR 25.2366 187.146 main 1380 1380 __________P___ -1 25.2366 -172.854 4 6 306
1950227N20207 1950 62 EP CP NOT_NAMED 1950-08-21 12:00:00 NR 25.4000 186.900 main 1405 1405 __________O___ -1 25.4000 -173.100 4 6 310
1950227N20207 1950 62 EP CP NOT_NAMED 1950-08-21 15:00:00 NR 25.5861 186.677 main 1429 1429 __________P___ -1 25.5861 -173.323 4 6 312
1950227N20207 1950 62 EP CP NOT_NAMED 1950-08-21 18:00:00 NR 25.7707 186.447 main 1464 1464 __________P___ -1 25.7707 -173.553 4 6 308
1950227N20207 1950 62 EP CP NOT_NAMED 1950-08-21 21:00:00 NR 25.9451 186.168 main 1486 1486 __________P___ -1 25.9451 -173.832 4 7 300
1950227N20207 1950 62 EP CP NOT_NAMED 1950-08-22 00:00:00 NR 26.1000 185.800 main 1530 1530 __________O___ -1 26.1000 -174.200 4 9 290
1950227N20207 1950 62 EP CP NOT_NAMED 1950-08-22 03:00:00 NR 26.2391 185.274 main 1581 1581 __________P___ -1 26.2391 -174.726 4 11 284
1950227N20207 1950 62 EP CP NOT_NAMED 1950-08-22 06:00:00 NR 26.3543 184.661 main 1644 1644 __________P___ -1 26.3543 -175.339 4 11 280
1950227N20207 1950 62 EP CP NOT_NAMED 1950-08-22 09:00:00 NR 26.4422 184.017 main 1712 1712 __________P___ -1 26.4422 -175.983 4 11 277
1950227N20207 1950 62 EP CP NOT_NAMED 1950-08-22 12:00:00 NR 26.5000 183.400 main 1773 1773 __________O___ -1 26.5000 -176.600 4 10 275
1950227N20207 1950 62 EP CP NOT_NAMED 1950-08-22 15:00:00 NR 26.5353 182.905 main 1821 1821 __________P___ -1 26.5353 -177.095 4 9 273
1950227N20207 1950 62 EP CP NOT_NAMED 1950-08-22 18:00:00 NR 26.5429 182.442 main 1870 1870 __________P___ -1 26.5429 -177.558 4 8 270
1950227N20207 1950 62 EP CP NOT_NAMED 1950-08-22 21:00:00 NR 26.5291 181.983 main 1909 1909 __________P___ -1 26.5291 -178.017 4 8 267
1950227N20207 1950 62 EP CP NOT_NAMED 1950-08-23 00:00:00 NR 26.5000 181.500 main 1958 1958 __________O___ -1 26.5000 -178.500 4 9 266
1950227N20207 1950 62 EP CP NOT_NAMED 1950-08-23 03:00:00 NR 26.4603 180.949 main 2016 2016 __________P___ -1 26.4603 -179.051 4 10 265
1950227N20207 1950 62 EP CP NOT_NAMED 1950-08-23 06:00:00 NR 26.4074 180.372 main 2063 2063 __________P___ -1 26.4074 -179.628 4 10 264
1950227N20207 1950 62 WP MM NOT_NAMED 1950-08-23 09:00:00 NR 26.3508 179.784 main 2122 2121 __________P___ -1 26.3508 179.784 4 11 264
1950227N20207 1950 62 WP MM NOT_NAMED 1950-08-23 12:00:00 NR 26.3000 179.200 main 2180 2180 __________O___ -1 26.3000 179.200 4 10 265
1950227N20207 1950 62 WP MM NOT_NAMED 1950-08-23 15:00:00 NR 26.2675 178.623 main 2239 2239 __________P___ -1 26.2675 178.623 4 10 267
1950227N20207 1950 62 WP MM NOT_NAMED 1950-08-23 18:00:00 NR 26.2423 178.055 main 2287 2287 __________P___ -1 26.2423 178.055 4 10 267
1950227N20207 1950 62 WP MM NOT_NAMED 1950-08-23 21:00:00 NR 26.2208 177.510 main 2346 2346 __________P___ -1 26.2208 177.510 4 9 267
1950227N20207 1950 62 WP MM NOT_NAMED 1950-08-24 00:00:00 NR 26.2000 177.000 main 2396 2396 __________O___ -1 26.2000 177.000 4 9 266
1950227N20207 1950 62 WP MM NOT_NAMED 1950-08-24 03:00:00 NR 26.1579 176.531 main 2445 2445 __________P___ -1 26.1579 176.531 4 8 264
1950227N20207 1950 62 WP MM NOT_NAMED 1950-08-24 06:00:00 NR 26.1190 176.097 main 2484 2484 __________P___ -1 26.1190 176.097 4 8 265
1950227N20207 1950 62 WP MM NOT_NAMED 1950-08-24 09:00:00 NR 26.0956 175.690 main 2524 2524 __________P___ -1 26.0956 175.690 4 7 268
1950227N20207 1950 62 WP MM NOT_NAMED 1950-08-24 12:00:00 NR 26.1000 175.300 main 2563 2563 __________O___ -1 26.1000 175.300 4 7 273
1950227N20207 1950 62 WP MM NOT_NAMED 1950-08-24 15:00:00 NR 26.1335 174.915 main 2603 2603 __________P___ -1 26.1335 174.915 4 7 278
1950227N20207 1950 62 WP MM NOT_NAMED 1950-08-24 18:00:00 NR 26.1968 174.542 main 2644 2644 __________P___ -1 26.1968 174.542 4 7 283
1950227N20207 1950 62 WP MM NOT_NAMED 1950-08-24 21:00:00 NR 26.2867 174.174 main 2675 2675 __________P___ -1 26.2867 174.174 4 7 287
1950227N20207 1950 62 WP MM NOT_NAMED 1950-08-25 00:00:00 NR 26.4000 173.800 main 2715 2715 __________O___ -1 26.4000 173.800 4 8 288
1950227N20207 1950 62 WP MM NOT_NAMED 1950-08-25 03:00:00 NR 26.5125 173.375 main 2756 2756 __________P___ -1 26.5125 173.375 4 8 288
1950227N20207 1950 62 WP MM NOT_NAMED 1950-08-25 06:00:00 NR 26.6480 172.948 main 2806 2806 __________P___ -1 26.6480 172.948 4 8 292
1950227N20207 1950 62 WP MM NOT_NAMED 1950-08-25 09:00:00 NR 26.8094 172.547 main 2848 2848 __________P___ -1 26.8094 172.547 4 8 298
1950227N20207 1950 62 WP MM NOT_NAMED 1950-08-25 12:00:00 NR 27.0000 172.200 main 2860 2830 __________O___ -1 27.0000 172.200 4 7 307
1950227N20207 1950 62 WP MM NOT_NAMED 1950-08-25 15:00:00 NR 27.2206 171.938 main 2824 2786 __________P___ -1 27.2206 171.938 4 6 318
1950227N20207 1950 62 WP MM NOT_NAMED 1950-08-25 18:00:00 NR 27.4692 171.732 main 2786 2762 __________P___ -1 27.4692 171.732 4 6 327
1950227N20207 1950 62 WP MM NOT_NAMED 1950-08-25 21:00:00 NR 27.7333 171.560 main 2762 2723 __________P___ -1 27.7333 171.560 4 6 331
1950227N20207 1950 62 WP MM NOT_NAMED 1950-08-26 00:00:00 NR 28.0000 171.400 main 2723 2694 __________O___ -1 28.0000 171.400 4 6 329
1950227N20207 1950 62 WP MM NOT_NAMED 1950-08-26 03:00:00 NR 28.2377 171.221 main 2694 2661 __________P___ -1 28.2377 171.221 4 6 327
1950227N20207 1950 62 WP MM NOT_NAMED 1950-08-26 06:00:00 NR 28.4773 171.049 main 2655 2632 __________P___ -1 28.4773 171.049 4 6 328
1950227N20207 1950 62 WP MM NOT_NAMED 1950-08-26 09:00:00 NR 28.7283 170.878 main 2632 2593 __________P___ -1 28.7283 170.878 4 6 330
1950227N20207 1950 62 WP MM NOT_NAMED 1950-08-26 12:00:00 NR 29.0000 170.700 main 2593 2555 __________O___ -1 29.0000 170.700 4 7 330
1950227N20207 1950 62 WP MM NOT_NAMED 1950-08-26 15:00:00 NR 29.2954 170.499 main 2555 2516 __________P___ -1 29.2954 170.499 4 7 330
1950227N20207 1950 62 WP MM NOT_NAMED 1950-08-26 18:00:00 NR 29.6126 170.292 main 2516 2478 __________P___ -1 29.6126 170.292 4 7 331
1950227N20207 1950 62 WP MM NOT_NAMED 1950-08-26 21:00:00 NR 29.9485 170.090 main 2478 2431 __________P___ -1 29.9485 170.090 4 8 334
1950227N20207 1950 62 WP MM NOT_NAMED 1950-08-27 00:00:00 NR 30.3000 169.900 main 2431 2393 __________O___ -1 30.3000 169.900 4 8 335
1950227N20207 1950 62 WP MM NOT_NAMED 1950-08-27 03:00:00 NR 30.6606 169.711 main 2385 2347 __________P___ -1 30.6606 169.711 4 8 337
1950227N20207 1950 62 WP MM NOT_NAMED 1950-08-27 06:00:00 NR 31.0350 169.540 main 2347 2306 __________P___ -1 31.0350 169.540 4 8 341
1950227N20207 1950 62 WP MM NOT_NAMED 1950-08-27 09:00:00 NR 31.4169 169.399 main 2306 2266 __________P___ -1 31.4169 169.399 4 8 345
1950227N20207 1950 62 WP MM NOT_NAMED 1950-08-27 12:00:00 NR 31.8000 169.300 main 2266 2226 __________O___ -1 31.8000 169.300 4 8 351
1950227N20207 1950 62 WP MM NOT_NAMED 1950-08-27 15:00:00 NR 32.2074 169.248 main 2226 2192 __________P___ -1 32.2074 169.248 4 8 356
1950227N20207 1950 62 WP MM NOT_NAMED 1950-08-27 18:00:00 NR 32.6098 169.239 main 2192 2165 __________P___ -1 32.6098 169.239 4 8 1
1950227N20207 1950 62 WP MM NOT_NAMED 1950-08-27 21:00:00 NR 32.9824 169.261 main 2165 2141 __________P___ -1 32.9824 169.261 4 7 4
1950227N20207 1950 62 WP MM NOT_NAMED 1950-08-28 00:00:00 NR 33.3000 169.300 main 2141 2124 __________O___ -1 33.3000 169.300 4 6 5
1950227N20207 1950 62 WP MM NOT_NAMED 1950-08-28 03:00:00 NR 33.5284 169.332 main 2124 2115 __________P___ -1 33.5284 169.332 4 4 9
1950227N20207 1950 62 WP MM NOT_NAMED 1950-08-28 06:00:00 NR 33.7025 169.378 main 2115 2107 __________P___ -1 33.7025 169.378 4 3 15
1950227N20207 1950 62 WP MM NOT_NAMED 1950-08-28 09:00:00 NR 33.8503 169.435 main 2099 2097 __________P___ -1 33.8503 169.435 4 3 20
1950227N20207 1950 62 WP MM NOT_NAMED 1950-08-28 12:00:00 NR 34.0000 169.500 main 2097 2088 __________O___ -1 34.0000 169.500 4 4 18
1950227N20207 1950 62 WP MM NOT_NAMED 1950-08-28 15:00:00 NR 34.1928 169.572 main 2088 2072 __________P___ -1 34.1928 169.572 4 4 17
1950227N20207 1950 62 WP MM NOT_NAMED 1950-08-28 18:00:00 NR 34.3925 169.650 main 2072 2062 __________P___ -1 34.3925 169.650 4 4 18
1950227N20207 1950 62 WP MM NOT_NAMED 1950-08-28 21:00:00 NR 34.5960 169.728 main 2062 2047 __________P___ -1 34.5960 169.728 4 4 17
1950227N20207 1950 62 WP MM NOT_NAMED 1950-08-29 00:00:00 NR 34.8000 169.800 main 2047 2028 __________O___ -1 34.8000 169.800 4 4 14
1950227N20207 1950 62 WP MM NOT_NAMED 1950-08-29 03:00:00 NR 35.0162 169.853 main 2032 2013 __________P___ -1 35.0162 169.853 4 4 10
1950227N20207 1950 62 WP MM NOT_NAMED 1950-08-29 06:00:00 NR 35.2299 169.900 main 2013 1993 __________P___ -1 35.2299 169.900 4 4 11
1950227N20207 1950 62 WP MM NOT_NAMED 1950-08-29 09:00:00 NR 35.4287 169.947 main 1993 1979 __________P___ -1 35.4287 169.947 4 4 11
1950227N20207 1950 62 WP MM NOT_NAMED 1950-08-29 12:00:00 NR 35.6000 170.000 main 1979 1969 __________O___ -1 35.6000 170.000 4 3 18
1950227N20207 1950 62 WP MM NOT_NAMED 1950-08-29 15:00:00 NR 35.7350 170.064 main 1974 1964 __________P___ -1 35.7350 170.064 4 3 25
1950227N20207 1950 62 WP MM NOT_NAMED 1950-08-29 18:00:00 NR 35.8401 170.137 main 1964 1954 __________P___ -1 35.8401 170.137 4 2 33
1950227N20207 1950 62 WP MM NOT_NAMED 1950-08-29 21:00:00 NR 35.9251 170.217 main 1959 1950 __________P___ -1 35.9251 170.217 4 2 39
1950227N20207 1950 62 WP MM NOT_NAMED 1950-08-30 00:00:00 NR 36.0000 170.300 main 1954 __________O___ -1 36.0000 170.300 4 2 44

IBTrACS Databaseについて

本データベースは、米国NOAAが公開する1842年以降の世界の熱帯低気圧のベストトラックデータアーカイブInternational Best Track Archive for Climate Stewardship (IBTrACS)を、ウェブで閲覧しやすい形式に変換したものです。

最終更新日:2021-12-01